createdAt,value
2019-05-23T00:00:54.802Z,6.23
2019-05-23T00:03:27.450Z,5.93
2019-05-23T00:06:01.767Z,6.30
2019-05-23T00:08:32.410Z,6.78
2019-05-23T00:11:22.021Z,6.90
2019-05-23T00:14:01.119Z,6.83
2019-05-23T00:16:31.861Z,7.37
2019-05-23T00:19:02.286Z,7.47
2019-05-23T00:21:33.338Z,8.07
2019-05-23T00:24:02.915Z,8.08
2019-05-23T00:26:32.643Z,8.50
2019-05-23T00:29:10.421Z,8.37
2019-05-23T00:31:45.726Z,8.50
2019-05-23T00:34:15.468Z,8.97
2019-05-23T00:36:46.291Z,8.77
2019-05-23T00:39:16.948Z,8.67
2019-05-23T00:41:48.911Z,8.87
2019-05-23T00:44:19.295Z,8.80
2019-05-23T00:46:50.138Z,8.80
2019-05-23T00:49:22.003Z,9.07
2019-05-23T00:51:51.557Z,9.23
2019-05-23T00:54:21.653Z,8.80
2019-05-23T00:56:51.799Z,8.90
2019-05-23T00:59:27.218Z,9.23
2019-05-23T01:01:53.835Z,10.03
2019-05-23T01:04:24.241Z,8.70
2019-05-23T01:06:54.139Z,9.03
2019-05-23T01:09:25.359Z,8.60
2019-05-23T01:11:55.604Z,9.10
2019-05-23T01:14:26.244Z,10.63
2019-05-23T01:16:55.687Z,10.30
2019-05-23T01:19:25.481Z,9.80
2019-05-23T01:22:03.034Z,9.90
2019-05-23T01:24:36.315Z,9.93
2019-05-23T01:27:07.432Z,9.60
2019-05-23T01:29:49.672Z,10.20
2019-05-23T01:32:43.965Z,9.60
2019-05-23T01:35:17.371Z,9.13
2019-05-23T01:37:48.757Z,9.08
2019-05-23T01:40:18.630Z,8.10
2019-05-23T01:42:48.130Z,8.37
2019-05-23T01:45:19.431Z,8.73
2019-05-23T01:47:50.503Z,8.20
2019-05-23T01:50:23.922Z,8.77
2019-05-23T01:52:54.256Z,9.67
2019-05-23T01:55:24.607Z,7.83
2019-05-23T01:57:54.795Z,8.17
2019-05-23T02:00:27.961Z,8.33
2019-05-23T02:02:57.735Z,8.05
2019-05-23T02:05:28.224Z,8.33
2019-05-23T02:07:57.686Z,8.85
2019-05-23T02:10:27.880Z,9.53
2019-05-23T02:12:57.975Z,9.13
2019-05-23T02:15:28.462Z,8.85
2019-05-23T02:17:58.302Z,8.80
2019-05-23T02:20:29.353Z,10.10
2019-05-23T02:23:00.065Z,9.23
2019-05-23T02:25:30.462Z,9.33
2019-05-23T02:28:00.247Z,9.28
2019-05-23T02:30:34.878Z,9.90
2019-05-23T02:33:02.736Z,9.37
2019-05-23T02:35:32.537Z,8.20
2019-05-23T02:38:20.995Z,9.70
2019-05-23T02:41:08.033Z,8.10
2019-05-23T02:43:39.385Z,8.97
2019-05-23T02:46:19.116Z,9.03
2019-05-23T02:48:51.189Z,8.60
2019-05-23T02:51:26.140Z,8.65
2019-05-23T02:53:57.323Z,9.08
2019-05-23T02:56:28.413Z,9.23
2019-05-23T02:59:10.003Z,9.23
2019-05-23T03:02:15.256Z,9.17
2019-05-23T03:04:47.648Z,8.93
2019-05-23T03:07:21.839Z,8.78
2019-05-23T03:09:51.988Z,9.73
2019-05-23T03:12:25.186Z,9.83
2019-05-23T03:14:53.587Z,9.85
2019-05-23T03:17:25.264Z,9.15
2019-05-23T03:19:58.018Z,9.97
2019-05-23T03:22:36.710Z,10.30
2019-05-23T03:25:10.592Z,9.63
2019-05-23T03:27:44.927Z,9.97
2019-05-23T03:30:21.291Z,10.17
2019-05-23T03:32:54.642Z,10.60
2019-05-23T03:35:38.879Z,10.00
2019-05-23T03:38:10.677Z,9.83
2019-05-23T03:40:41.369Z,9.70
2019-05-23T03:43:11.786Z,10.87
2019-05-23T03:45:47.677Z,10.80
2019-05-23T03:48:19.022Z,11.00
2019-05-23T03:50:48.887Z,10.67
2019-05-23T03:53:20.120Z,10.80
2019-05-23T03:55:50.117Z,10.93
2019-05-23T03:58:21.339Z,11.43
2019-05-23T04:00:56.963Z,12.88
2019-05-23T04:03:26.737Z,11.83
2019-05-23T04:05:59.865Z,12.33
2019-05-23T04:08:30.385Z,12.78
2019-05-23T04:11:00.540Z,13.67
2019-05-23T04:13:30.490Z,13.40
2019-05-23T04:16:00.598Z,13.78
2019-05-23T04:18:30.514Z,13.05
2019-05-23T04:21:00.032Z,13.03
2019-05-23T04:23:30.662Z,12.95
2019-05-23T04:26:00.264Z,14.00
2019-05-23T04:28:29.859Z,13.53
2019-05-23T04:30:59.572Z,12.95
2019-05-23T04:33:29.219Z,12.60
2019-05-23T04:35:59.049Z,15.07
2019-05-23T04:38:28.778Z,14.93
2019-05-23T04:40:58.176Z,12.73
2019-05-23T04:43:27.624Z,14.20
2019-05-23T04:45:57.675Z,13.65
2019-05-23T04:48:27.244Z,13.77
2019-05-23T04:50:59.955Z,12.67
2019-05-23T04:53:28.972Z,13.03
2019-05-23T04:55:58.892Z,12.98
2019-05-23T04:58:28.315Z,13.43
2019-05-23T05:00:57.980Z,13.77
2019-05-23T05:03:27.847Z,13.48
2019-05-23T05:05:57.351Z,12.50
2019-05-23T05:08:26.836Z,13.33
2019-05-23T05:10:56.494Z,12.30
2019-05-23T05:13:25.944Z,14.47
2019-05-23T05:15:55.890Z,13.73
2019-05-23T05:18:25.508Z,16.83
2019-05-23T05:20:54.942Z,14.77
2019-05-23T05:23:24.909Z,13.80
2019-05-23T05:25:54.302Z,15.53
2019-05-23T05:28:23.761Z,16.35
2019-05-23T05:30:53.972Z,15.80
2019-05-23T05:33:23.410Z,15.73
2019-05-23T05:35:52.962Z,15.73
2019-05-23T05:38:22.934Z,15.03
2019-05-23T05:40:52.699Z,16.07
2019-05-23T05:43:22.298Z,14.78
2019-05-23T05:45:51.960Z,16.17
2019-05-23T05:48:21.410Z,15.50
2019-05-23T05:50:51.074Z,15.03
2019-05-23T05:53:20.661Z,14.60
2019-05-23T05:55:50.085Z,13.87
2019-05-23T05:58:19.602Z,13.00
2019-05-23T06:01:08.321Z,13.00
2019-05-23T06:03:39.188Z,13.07
2019-05-23T06:06:29.043Z,11.70
2019-05-23T06:09:01.001Z,11.30
2019-05-23T06:11:31.366Z,11.57
2019-05-23T06:14:01.433Z,10.80
2019-05-23T06:16:31.856Z,10.28
2019-05-23T06:19:01.401Z,9.75
2019-05-23T06:21:31.338Z,9.13
2019-05-23T06:24:01.100Z,9.40
2019-05-23T06:26:31.218Z,9.30
2019-05-23T06:29:00.817Z,8.53
2019-05-23T06:31:31.900Z,7.43
2019-05-23T06:34:01.429Z,6.03
2019-05-23T06:36:31.594Z,12.43
2019-05-23T06:39:01.061Z,9.07
2019-05-23T06:41:31.208Z,7.70
2019-05-23T06:44:00.716Z,5.90
2019-05-23T06:46:30.461Z,6.72
2019-05-23T06:49:00.230Z,5.67
2019-05-23T06:51:31.272Z,4.87
2019-05-23T06:54:02.152Z,6.17
2019-05-23T06:56:32.230Z,5.00
2019-05-23T06:59:01.970Z,4.60
2019-05-23T07:01:34.068Z,4.10
2019-05-23T07:04:03.655Z,3.85
2019-05-23T07:06:33.122Z,3.27
2019-05-23T07:09:02.955Z,3.02
2019-05-23T07:11:32.371Z,3.15
2019-05-23T07:14:01.981Z,3.27
2019-05-23T07:16:33.030Z,3.00
2019-05-23T07:19:02.692Z,3.30
2019-05-23T07:21:32.389Z,3.20
2019-05-23T07:24:01.850Z,2.70
2019-05-23T07:26:31.606Z,2.70
2019-05-23T07:29:01.669Z,2.83
2019-05-23T07:31:31.546Z,3.50
2019-05-23T07:34:02.648Z,2.33
2019-05-23T07:36:32.795Z,2.35
2019-05-23T07:39:02.265Z,9.83
2019-05-23T07:41:32.020Z,2.25
2019-05-23T07:44:01.600Z,3.92
2019-05-23T07:46:32.191Z,2.40
2019-05-23T07:49:02.284Z,2.43
2019-05-23T07:51:31.802Z,2.47
2019-05-23T07:54:19.935Z,2.02
2019-05-23T07:56:49.326Z,2.08
2019-05-23T07:59:18.929Z,2.10
2019-05-23T08:01:53.639Z,2.30
2019-05-23T08:04:23.825Z,2.25
2019-05-23T08:06:54.148Z,2.50
2019-05-23T08:09:24.383Z,2.80
2019-05-23T08:11:54.042Z,3.47
2019-05-23T08:14:23.659Z,2.90
2019-05-23T08:16:54.036Z,2.60
2019-05-23T08:19:23.863Z,2.27
2019-05-23T08:21:53.756Z,2.98
2019-05-23T08:24:23.233Z,2.90
2019-05-23T08:26:53.722Z,3.30
2019-05-23T08:29:26.381Z,3.12
2019-05-23T08:31:55.455Z,3.20
2019-05-23T08:34:40.594Z,4.20
2019-05-23T08:36:57.369Z,3.75
2019-05-23T08:39:27.861Z,3.67
2019-05-23T08:41:57.600Z,3.20
2019-05-23T08:44:27.390Z,3.08
2019-05-23T08:47:00.312Z,2.85
2019-05-23T08:49:29.950Z,3.10
2019-05-23T08:51:59.718Z,2.52
2019-05-23T08:54:30.121Z,2.98
2019-05-23T08:56:59.589Z,2.92
2019-05-23T08:59:30.027Z,2.45
2019-05-23T09:02:00.027Z,2.90
2019-05-23T09:04:33.297Z,2.70
2019-05-23T09:07:04.768Z,2.85
2019-05-23T09:09:34.836Z,2.80
2019-05-23T09:12:05.061Z,2.30
2019-05-23T09:14:35.630Z,2.52
2019-05-23T09:17:06.119Z,2.80
2019-05-23T09:19:35.630Z,2.35
2019-05-23T09:22:05.212Z,3.90
2019-05-23T09:24:34.914Z,3.47
2019-05-23T09:27:04.752Z,2.37
2019-05-23T09:29:34.258Z,2.60
2019-05-23T09:32:04.416Z,2.60
2019-05-23T09:34:36.833Z,2.95
2019-05-23T09:37:08.262Z,2.77
2019-05-23T09:39:38.172Z,2.45
2019-05-23T09:42:11.750Z,2.50
2019-05-23T09:44:38.946Z,2.27
2019-05-23T09:47:08.638Z,2.80
2019-05-23T09:49:38.142Z,2.50
2019-05-23T09:52:08.326Z,2.50
2019-05-23T09:54:38.245Z,2.47
2019-05-23T09:57:08.951Z,2.50
2019-05-23T09:59:39.910Z,2.35
2019-05-23T10:02:09.863Z,2.23
2019-05-23T10:04:39.326Z,2.13
2019-05-23T10:07:08.788Z,2.37
2019-05-23T10:09:38.280Z,2.00
2019-05-23T10:12:08.785Z,1.80
2019-05-23T10:14:39.510Z,2.13
2019-05-23T10:17:09.283Z,1.85
2019-05-23T10:19:39.769Z,2.20
2019-05-23T10:22:09.242Z,2.00
2019-05-23T10:24:39.170Z,2.00
2019-05-23T10:27:10.343Z,1.90
2019-05-23T10:29:39.883Z,1.80
2019-05-23T10:32:11.086Z,2.13
2019-05-23T10:34:40.531Z,2.03
2019-05-23T10:37:12.393Z,2.10
2019-05-23T10:39:46.897Z,2.20
2019-05-23T10:42:16.811Z,4.40
2019-05-23T10:44:46.350Z,3.13
2019-05-23T10:47:16.078Z,2.30
2019-05-23T10:49:45.874Z,1.97
2019-05-23T10:52:15.408Z,2.27
2019-05-23T10:54:45.143Z,2.40
2019-05-23T10:57:14.800Z,2.40
2019-05-23T10:59:44.306Z,2.80
2019-05-23T11:02:14.729Z,2.30
2019-05-23T11:04:44.238Z,2.23
2019-05-23T11:07:14.467Z,2.23
2019-05-23T11:09:45.035Z,2.10
2019-05-23T11:12:14.669Z,2.50
2019-05-23T11:14:46.125Z,2.50
2019-05-23T11:17:15.879Z,2.67
2019-05-23T11:19:45.332Z,2.17
2019-05-23T11:22:14.941Z,2.60
2019-05-23T11:24:44.523Z,2.20
2019-05-23T11:27:14.071Z,2.40
2019-05-23T11:29:43.867Z,2.70
2019-05-23T11:32:13.853Z,2.17
2019-05-23T11:34:43.295Z,2.20
2019-05-23T11:37:12.712Z,2.53
2019-05-23T11:39:49.708Z,2.47
2019-05-23T11:42:13.811Z,2.23
2019-05-23T11:44:43.335Z,2.60
2019-05-23T11:47:13.415Z,2.57
2019-05-23T11:49:44.288Z,3.00
2019-05-23T11:52:14.627Z,2.40
2019-05-23T11:54:45.168Z,2.90
2019-05-23T11:57:15.642Z,2.80
2019-05-23T11:59:45.163Z,2.27
2019-05-23T12:02:32.346Z,2.80
2019-05-23T12:05:04.462Z,2.60
2019-05-23T12:07:34.740Z,3.07
2019-05-23T12:10:04.797Z,2.92
2019-05-23T12:12:34.194Z,2.83
2019-05-23T12:15:05.266Z,2.70
2019-05-23T12:17:35.251Z,2.40
2019-05-23T12:20:05.985Z,2.60
2019-05-23T12:22:37.010Z,2.40
2019-05-23T12:25:21.176Z,2.25
2019-05-23T12:27:39.589Z,2.72
2019-05-23T12:30:13.006Z,2.80
2019-05-23T12:32:42.526Z,2.87
2019-05-23T12:35:12.615Z,2.83
2019-05-23T12:37:42.109Z,2.53
2019-05-23T12:40:12.976Z,2.27
2019-05-23T12:42:42.393Z,2.60
2019-05-23T12:45:10.781Z,2.80
2019-05-23T12:47:54.923Z,2.80
2019-05-23T12:50:27.685Z,3.43
2019-05-23T12:52:57.334Z,3.27
2019-05-23T12:55:27.345Z,2.67
2019-05-23T12:57:56.819Z,2.70
2019-05-23T13:00:45.359Z,3.00
2019-05-23T13:03:15.765Z,2.90
2019-05-23T13:05:45.372Z,2.60
2019-05-23T13:08:15.292Z,3.00
2019-05-23T13:10:44.852Z,2.20
2019-05-23T13:13:14.627Z,2.77
2019-05-23T13:15:44.358Z,3.10
2019-05-23T13:18:14.253Z,3.00
2019-05-23T13:20:44.080Z,2.63
2019-05-23T13:23:20.827Z,3.20
2019-05-23T13:25:45.538Z,3.70
2019-05-23T13:28:15.152Z,2.63
2019-05-23T13:30:44.683Z,3.10
2019-05-23T13:33:14.423Z,2.90
2019-05-23T13:35:45.815Z,2.50
2019-05-23T13:38:15.933Z,3.47
2019-05-23T13:40:45.502Z,3.20
2019-05-23T13:43:14.970Z,2.80
2019-05-23T13:45:44.959Z,3.10
2019-05-23T13:48:16.396Z,3.10
2019-05-23T13:50:46.156Z,2.87
2019-05-23T13:53:18.889Z,3.17
2019-05-23T13:55:48.456Z,2.80
2019-05-23T13:58:17.977Z,2.97
2019-05-23T14:00:48.089Z,3.00
2019-05-23T14:03:18.221Z,2.60
2019-05-23T14:05:47.846Z,2.80
2019-05-23T14:08:19.338Z,2.80
2019-05-23T14:10:48.712Z,3.00
2019-05-23T14:13:18.217Z,3.20
2019-05-23T14:15:49.127Z,2.63
2019-05-23T14:18:20.179Z,2.43
2019-05-23T14:20:50.117Z,2.33
2019-05-23T14:23:24.992Z,2.63
2019-05-23T14:25:55.007Z,2.80
2019-05-23T14:28:24.672Z,2.80
2019-05-23T14:31:28.465Z,2.30
2019-05-23T14:34:03.598Z,2.40
2019-05-23T14:36:50.940Z,2.43
2019-05-23T14:39:32.453Z,2.70
2019-05-23T14:42:10.728Z,2.40
2019-05-23T14:44:40.184Z,2.50
2019-05-23T14:47:27.877Z,2.33
2019-05-23T14:50:19.143Z,2.20
2019-05-23T14:52:50.608Z,2.50
2019-05-23T14:55:20.193Z,2.70
2019-05-23T14:57:49.697Z,2.60
2019-05-23T15:00:19.768Z,2.17
2019-05-23T15:02:49.261Z,2.10
2019-05-23T15:05:18.827Z,2.27
2019-05-23T15:07:48.875Z,2.13
2019-05-23T15:10:20.032Z,2.30
2019-05-23T15:12:49.506Z,2.20
2019-05-23T15:15:19.129Z,1.90
2019-05-23T15:17:48.681Z,2.20
2019-05-23T15:20:19.728Z,2.00
2019-05-23T15:22:49.186Z,2.53
2019-05-23T15:25:18.814Z,2.40
2019-05-23T15:27:48.277Z,2.10
2019-05-23T15:30:18.583Z,2.60
2019-05-23T15:32:48.058Z,2.23
2019-05-23T15:35:17.931Z,2.07
2019-05-23T15:37:47.725Z,2.00
2019-05-23T15:40:17.279Z,1.90
2019-05-23T15:42:47.076Z,2.50
2019-05-23T15:45:16.937Z,2.80
2019-05-23T15:47:46.497Z,2.20
2019-05-23T15:50:17.687Z,2.10
2019-05-23T15:52:55.320Z,2.10
2019-05-23T15:55:42.909Z,2.20
2019-05-23T15:58:23.451Z,2.00
2019-05-23T16:01:04.107Z,1.93
2019-05-23T16:03:39.007Z,2.37
2019-05-23T16:06:11.164Z,2.10
2019-05-23T16:08:42.902Z,2.13
2019-05-23T16:11:17.133Z,2.20
2019-05-23T16:13:44.406Z,5.10
2019-05-23T16:16:13.959Z,2.33
2019-05-23T16:18:44.294Z,2.03
2019-05-23T16:21:14.607Z,2.10
2019-05-23T16:23:44.051Z,2.20
2019-05-23T16:26:13.760Z,1.93
2019-05-23T16:28:43.201Z,1.97
2019-05-23T16:31:12.613Z,2.20
2019-05-23T16:33:42.110Z,2.00
2019-05-23T16:36:11.578Z,1.80
2019-05-23T16:38:41.118Z,1.70
2019-05-23T16:41:11.525Z,1.80
2019-05-23T16:43:41.391Z,1.80
2019-05-23T16:46:11.664Z,2.27
2019-05-23T16:48:41.442Z,3.00
2019-05-23T16:51:10.912Z,2.60
2019-05-23T16:53:40.930Z,2.00
2019-05-23T16:56:18.885Z,1.82
2019-05-23T16:59:03.204Z,1.80
2019-05-23T17:01:57.040Z,1.83
2019-05-23T17:04:37.857Z,1.70
2019-05-23T17:07:19.293Z,1.80
2019-05-23T17:10:08.639Z,2.00
2019-05-23T17:12:49.891Z,1.87
2019-05-23T17:15:56.660Z,1.70
2019-05-23T17:19:03.747Z,1.90
2019-05-23T17:21:55.369Z,3.07
2019-05-23T17:24:49.787Z,2.73
2019-05-23T17:27:28.520Z,2.70
2019-05-23T17:30:17.432Z,4.00
2019-05-23T17:32:47.153Z,2.10
2019-05-23T17:35:16.745Z,2.20
2019-05-23T17:37:46.639Z,2.03
2019-05-23T17:40:25.086Z,2.00
2019-05-23T17:42:47.687Z,1.97
2019-05-23T17:45:18.382Z,2.10
2019-05-23T17:47:48.540Z,1.97
2019-05-23T17:50:18.224Z,2.33
2019-05-23T17:52:47.905Z,1.90
2019-05-23T17:55:17.337Z,2.20
2019-05-23T17:57:47.112Z,2.80
2019-05-23T18:00:21.345Z,2.30
2019-05-23T18:02:51.270Z,2.00
2019-05-23T18:05:21.417Z,2.00
2019-05-23T18:07:51.003Z,2.10
2019-05-23T18:10:20.653Z,3.07
2019-05-23T18:12:50.294Z,2.37
2019-05-23T18:15:19.955Z,2.60
2019-05-23T18:17:49.652Z,2.00
2019-05-23T18:20:19.158Z,2.30
2019-05-23T18:22:48.747Z,1.87
2019-05-23T18:25:18.466Z,3.60
2019-05-23T18:27:48.108Z,2.50
2019-05-23T18:30:29.023Z,2.57
2019-05-23T18:32:58.461Z,3.33
2019-05-23T18:35:28.788Z,9.73
2019-05-23T18:37:58.477Z,3.80
2019-05-23T18:40:29.159Z,2.85
2019-05-23T18:42:58.636Z,2.67
2019-05-23T18:45:29.880Z,3.83
2019-05-23T18:47:59.508Z,2.90
2019-05-23T18:50:31.008Z,2.37
2019-05-23T18:53:01.296Z,2.22
2019-05-23T18:55:31.159Z,2.83
2019-05-23T18:58:00.786Z,2.33
2019-05-23T19:01:09.741Z,2.10
2019-05-23T19:03:39.807Z,2.50
2019-05-23T19:06:09.304Z,2.90
2019-05-23T19:08:39.145Z,4.33
2019-05-23T19:11:20.063Z,5.10
2019-05-23T19:13:40.202Z,5.90
2019-05-23T19:16:09.656Z,6.43
2019-05-23T19:18:39.266Z,6.45
2019-05-23T19:21:10.267Z,8.00
2019-05-23T19:23:40.955Z,7.97
2019-05-23T19:26:10.906Z,7.90
2019-05-23T19:28:40.639Z,8.47
2019-05-23T19:31:10.627Z,9.80
2019-05-23T19:33:40.653Z,9.25
2019-05-23T19:36:11.997Z,9.90
2019-05-23T19:38:41.641Z,10.50
2019-05-23T19:41:12.581Z,55.50
2019-05-23T19:43:42.463Z,30.87
2019-05-23T19:46:12.401Z,17.07
2019-05-23T19:48:42.796Z,13.07
2019-05-23T19:51:12.372Z,11.00
2019-05-23T19:53:42.391Z,8.87
2019-05-23T19:56:11.930Z,8.53
2019-05-23T19:58:42.318Z,6.57
2019-05-23T20:01:12.359Z,5.60
2019-05-23T20:03:41.872Z,5.40
2019-05-23T20:06:11.573Z,4.97
2019-05-23T20:08:41.495Z,5.07
2019-05-23T20:11:11.338Z,4.53
2019-05-23T20:13:40.866Z,3.70
2019-05-23T20:16:11.022Z,3.83
2019-05-23T20:18:40.752Z,3.42
2019-05-23T20:21:10.490Z,3.20
2019-05-23T20:23:39.998Z,3.10
2019-05-23T20:26:09.521Z,3.10
2019-05-23T20:28:40.316Z,3.20
2019-05-23T20:31:10.329Z,3.27
2019-05-23T20:33:39.999Z,3.33
2019-05-23T20:36:12.735Z,3.23
2019-05-23T20:38:42.648Z,3.40
2019-05-23T20:41:12.528Z,3.07
2019-05-23T20:43:42.015Z,3.60
2019-05-23T20:46:11.904Z,3.50
2019-05-23T20:48:41.451Z,3.07
2019-05-23T20:51:13.500Z,3.62
2019-05-23T20:53:43.920Z,3.40
2019-05-23T20:56:13.770Z,3.30
2019-05-23T20:58:43.196Z,3.57
2019-05-23T21:01:21.132Z,3.50
2019-05-23T21:03:51.934Z,3.60
2019-05-23T21:06:21.338Z,4.83
2019-05-23T21:08:50.844Z,3.60
2019-05-23T21:11:20.515Z,3.33
2019-05-23T21:13:49.987Z,3.13
2019-05-23T21:16:19.630Z,2.70
2019-05-23T21:18:50.298Z,2.70
2019-05-23T21:21:20.038Z,3.30
2019-05-23T21:23:49.845Z,4.33
2019-05-23T21:26:19.395Z,3.20
2019-05-23T21:28:49.034Z,3.23
2019-05-23T21:31:22.153Z,3.13
2019-05-23T21:33:51.592Z,3.20
2019-05-23T21:36:21.111Z,3.10
2019-05-23T21:38:51.279Z,3.30
2019-05-23T21:41:20.883Z,3.10
2019-05-23T21:43:52.449Z,3.17
2019-05-23T21:46:22.053Z,3.13
2019-05-23T21:48:51.585Z,3.23
2019-05-23T21:51:21.038Z,3.80
2019-05-23T21:53:50.534Z,3.30
2019-05-23T21:56:19.991Z,3.10
2019-05-23T21:58:50.184Z,3.10
2019-05-23T22:01:41.255Z,3.10
2019-05-23T22:04:29.673Z,2.90
2019-05-23T22:07:04.340Z,3.30
2019-05-23T22:09:34.670Z,3.00
2019-05-23T22:12:06.931Z,3.20
2019-05-23T22:14:36.643Z,3.13
2019-05-23T22:17:06.017Z,3.20
2019-05-23T22:19:35.419Z,3.30
2019-05-23T22:22:05.301Z,3.37
2019-05-23T22:24:34.745Z,3.10
2019-05-23T22:27:06.634Z,3.60
2019-05-23T22:29:36.210Z,3.47
2019-05-23T22:32:07.276Z,3.00
2019-05-23T22:34:44.886Z,3.40
2019-05-23T22:37:16.919Z,3.73
2019-05-23T22:39:46.321Z,3.47
2019-05-23T22:42:15.817Z,3.43
2019-05-23T22:44:45.402Z,4.07
2019-05-23T22:47:14.784Z,3.50
2019-05-23T22:49:44.367Z,3.67
2019-05-23T22:52:13.822Z,3.70
2019-05-23T22:54:43.227Z,4.03
2019-05-23T22:57:12.672Z,3.90
2019-05-23T22:59:42.327Z,4.08
2019-05-23T23:02:15.190Z,4.10
2019-05-23T23:04:44.774Z,3.90
2019-05-23T23:07:15.715Z,4.30
2019-05-23T23:09:45.548Z,4.43
2019-05-23T23:12:15.230Z,4.27
2019-05-23T23:14:44.926Z,4.50
2019-05-23T23:17:15.020Z,4.90
2019-05-23T23:19:44.548Z,4.70
2019-05-23T23:22:14.984Z,5.00
2019-05-23T23:24:44.460Z,5.40
2019-05-23T23:27:13.947Z,5.10
2019-05-23T23:29:43.686Z,5.60
2019-05-23T23:32:13.199Z,4.80
2019-05-23T23:34:42.728Z,5.60
2019-05-23T23:37:12.534Z,4.80
2019-05-23T23:39:42.041Z,5.27
2019-05-23T23:42:11.632Z,4.37
2019-05-23T23:44:40.249Z,5.10
2019-05-23T23:47:27.489Z,4.47
2019-05-23T23:50:14.933Z,5.47
2019-05-23T23:53:02.198Z,5.40
2019-05-23T23:55:49.496Z,6.03
2019-05-23T23:58:17.924Z,5.57
